createdAt,value
2023-04-22T00:00:32.863Z,30.35
2023-04-22T00:03:24.585Z,28.80
2023-04-22T00:05:57.710Z,31.65
2023-04-22T00:08:30.712Z,34.08
2023-04-22T00:11:03.938Z,23.73
2023-04-22T00:13:38.005Z,25.95
2023-04-22T00:16:10.717Z,33.45
2023-04-22T00:18:43.740Z,22.52
2023-04-22T00:21:16.332Z,24.10
2023-04-22T00:23:49.286Z,29.85
2023-04-22T00:26:21.897Z,21.42
2023-04-22T00:28:55.836Z,21.38
2023-04-22T00:31:28.563Z,19.48
2023-04-22T00:34:01.766Z,22.00
2023-04-22T00:36:35.347Z,22.98
2023-04-22T00:39:09.637Z,21.17
2023-04-22T00:41:43.941Z,24.13
2023-04-22T00:44:19.513Z,27.50
2023-04-22T00:46:53.377Z,20.98
2023-04-22T00:49:31.107Z,17.80
2023-04-22T00:52:04.013Z,24.50
2023-04-22T00:54:37.250Z,15.70
2023-04-22T00:57:09.844Z,23.75
2023-04-22T00:59:43.346Z,18.23
2023-04-22T01:02:16.490Z,23.05
2023-04-22T01:04:50.056Z,25.52
2023-04-22T01:07:22.671Z,38.30
2023-04-22T01:09:55.659Z,41.13
2023-04-22T01:12:28.259Z,22.75
2023-04-22T01:15:04.292Z,25.67
2023-04-22T01:17:37.801Z,23.45
2023-04-22T01:20:12.609Z,21.65
2023-04-22T01:22:46.295Z,25.75
2023-04-22T01:25:19.249Z,19.88
2023-04-22T01:27:51.867Z,23.13
2023-04-22T01:30:25.028Z,18.45
2023-04-22T01:32:57.747Z,16.65
2023-04-22T01:35:37.271Z,18.67
2023-04-22T01:38:11.111Z,26.33
2023-04-22T01:40:44.214Z,12.90
2023-04-22T01:43:16.842Z,18.50
2023-04-22T01:45:49.833Z,19.23
2023-04-22T01:48:22.448Z,23.70
2023-04-22T01:50:55.608Z,21.77
2023-04-22T01:53:28.194Z,19.67
2023-04-22T01:56:01.142Z,15.60
2023-04-22T01:58:34.018Z,18.10
2023-04-22T02:01:07.659Z,18.52
2023-04-22T02:03:42.130Z,21.65
2023-04-22T02:06:16.762Z,22.48
2023-04-22T02:08:49.305Z,24.02
2023-04-22T02:11:22.404Z,17.50
2023-04-22T02:13:54.997Z,16.50
2023-04-22T02:16:28.033Z,26.50
2023-04-22T02:19:01.114Z,14.65
2023-04-22T02:21:34.369Z,17.23
2023-04-22T02:24:07.243Z,16.52
2023-04-22T02:26:40.171Z,18.65
2023-04-22T02:29:13.578Z,22.88
2023-04-22T02:31:46.645Z,12.20
2023-04-22T02:34:19.573Z,16.77
2023-04-22T02:36:52.968Z,20.15
2023-04-22T02:39:26.018Z,13.05
2023-04-22T02:41:59.649Z,14.10
2023-04-22T02:44:32.545Z,13.13
2023-04-22T02:47:10.123Z,11.70
2023-04-22T02:49:43.296Z,16.73
2023-04-22T02:52:16.455Z,12.85
2023-04-22T02:54:50.127Z,15.95
2023-04-22T02:57:23.143Z,17.95
2023-04-22T02:59:55.796Z,14.55
2023-04-22T03:02:30.428Z,12.10
2023-04-22T03:05:23.366Z,14.45
2023-04-22T03:07:56.366Z,22.15
2023-04-22T03:10:30.089Z,9.73
2023-04-22T03:13:03.444Z,17.70
2023-04-22T03:15:36.173Z,24.73
2023-04-22T03:18:14.380Z,14.35
2023-04-22T03:20:50.686Z,15.02
2023-04-22T03:23:24.409Z,14.38
2023-04-22T03:25:56.975Z,18.63
2023-04-22T03:28:30.115Z,18.10
2023-04-22T03:31:05.312Z,14.65
2023-04-22T03:33:42.818Z,16.73
2023-04-22T03:36:24.977Z,13.05
2023-04-22T03:38:57.951Z,14.95
2023-04-22T03:41:31.962Z,18.30
2023-04-22T03:44:05.045Z,17.17
2023-04-22T03:46:39.612Z,20.25
2023-04-22T03:49:25.128Z,16.45
2023-04-22T03:51:58.068Z,15.45
2023-04-22T03:54:31.433Z,19.73
2023-04-22T03:57:04.670Z,17.35
2023-04-22T03:59:37.906Z,20.17
2023-04-22T04:02:11.637Z,18.23
2023-04-22T04:04:44.915Z,21.42
2023-04-22T04:07:17.997Z,18.55
2023-04-22T04:09:51.226Z,23.83
2023-04-22T04:12:23.968Z,17.60
2023-04-22T04:14:57.309Z,12.75
2023-04-22T04:17:31.397Z,12.13
2023-04-22T04:20:07.558Z,11.95
2023-04-22T04:22:41.956Z,12.52
2023-04-22T04:25:15.624Z,18.88
2023-04-22T04:27:52.294Z,10.43
2023-04-22T04:30:25.990Z,13.48
2023-04-22T04:33:07.646Z,13.18
2023-04-22T04:35:44.051Z,16.77
2023-04-22T04:38:20.419Z,9.63
2023-04-22T04:40:54.927Z,15.05
2023-04-22T04:43:30.085Z,8.98
2023-04-22T04:46:14.290Z,8.80
2023-04-22T04:48:47.110Z,27.45
2023-04-22T04:51:20.576Z,12.77
2023-04-22T04:54:03.111Z,15.57
2023-04-22T04:56:41.523Z,11.52
2023-04-22T04:59:16.311Z,9.45
2023-04-22T05:01:49.521Z,31.92
2023-04-22T05:04:22.476Z,16.00
2023-04-22T05:06:55.666Z,12.15
2023-04-22T05:09:28.453Z,16.17
2023-04-22T05:12:01.550Z,12.13
2023-04-22T05:14:35.312Z,13.77
2023-04-22T05:17:08.728Z,18.73
2023-04-22T05:19:41.618Z,15.80
2023-04-22T05:22:14.973Z,14.48
2023-04-22T05:24:47.864Z,15.90
2023-04-22T05:27:21.052Z,14.70
2023-04-22T05:29:54.080Z,16.40
2023-04-22T05:32:32.245Z,18.42
2023-04-22T05:35:05.088Z,13.90
2023-04-22T05:37:38.863Z,22.83
2023-04-22T05:40:12.179Z,21.90
2023-04-22T05:42:45.300Z,23.98
2023-04-22T05:45:18.201Z,19.80
2023-04-22T05:47:51.353Z,22.77
2023-04-22T05:50:25.078Z,14.48
2023-04-22T05:53:11.102Z,14.73
2023-04-22T05:55:44.658Z,16.65
2023-04-22T05:58:19.496Z,14.38
2023-04-22T06:01:02.420Z,22.83
2023-04-22T06:03:48.251Z,22.15
2023-04-22T06:06:21.310Z,27.13
2023-04-22T06:08:54.247Z,17.77
2023-04-22T06:11:27.005Z,20.27
2023-04-22T06:14:00.377Z,16.13
2023-04-22T06:16:34.918Z,17.35
2023-04-22T06:19:10.382Z,19.73
2023-04-22T06:21:43.713Z,22.80
2023-04-22T06:24:16.834Z,22.75
2023-04-22T06:26:49.575Z,17.05
2023-04-22T06:29:22.584Z,16.23
2023-04-22T06:31:56.009Z,15.25
2023-04-22T06:34:30.017Z,15.55
2023-04-22T06:37:02.772Z,23.52
2023-04-22T06:39:36.637Z,19.10
2023-04-22T06:42:29.526Z,18.98
2023-04-22T06:45:21.022Z,15.60
2023-04-22T06:48:14.013Z,18.55
2023-04-22T06:51:13.367Z,18.77
2023-04-22T06:53:45.974Z,15.73
2023-04-22T06:56:22.023Z,16.48
2023-04-22T06:58:54.904Z,15.60
2023-04-22T07:01:28.048Z,14.00
2023-04-22T07:04:00.940Z,17.33
2023-04-22T07:06:33.984Z,14.23
2023-04-22T07:09:06.819Z,13.55
2023-04-22T07:11:40.489Z,12.18
2023-04-22T07:14:27.796Z,10.88
2023-04-22T07:17:00.881Z,14.18
2023-04-22T07:19:35.335Z,16.65
2023-04-22T07:22:08.569Z,19.75
2023-04-22T07:24:41.525Z,15.05
2023-04-22T07:27:14.548Z,14.57
2023-04-22T07:29:47.589Z,14.10
2023-04-22T07:32:20.570Z,14.10
2023-04-22T07:34:53.357Z,19.02
2023-04-22T07:37:26.239Z,17.95
2023-04-22T07:39:58.835Z,17.23
2023-04-22T07:42:32.004Z,20.13
2023-04-22T07:45:04.709Z,29.60
2023-04-22T07:47:37.846Z,27.55
2023-04-22T07:50:10.665Z,19.70
2023-04-22T07:52:43.565Z,22.33
2023-04-22T07:55:16.328Z,27.40
2023-04-22T07:57:49.271Z,17.65
2023-04-22T08:00:22.259Z,21.48
2023-04-22T08:02:55.397Z,23.23
2023-04-22T08:05:28.306Z,19.17
2023-04-22T08:08:01.289Z,17.73
2023-04-22T08:10:33.970Z,19.20
2023-04-22T08:13:06.982Z,25.65
2023-04-22T08:15:39.617Z,27.85
2023-04-22T08:18:12.613Z,17.50
2023-04-22T08:20:45.279Z,18.80
2023-04-22T08:23:18.237Z,23.63
2023-04-22T08:25:52.962Z,14.63
2023-04-22T08:28:26.762Z,14.93
2023-04-22T08:30:59.389Z,14.70
2023-04-22T08:33:32.450Z,18.63
2023-04-22T08:36:05.063Z,18.73
2023-04-22T08:38:37.990Z,17.73
2023-04-22T08:41:10.772Z,17.25
2023-04-22T08:43:44.063Z,22.98
2023-04-22T08:46:18.256Z,22.55
2023-04-22T08:48:51.610Z,13.75
2023-04-22T08:51:24.694Z,16.38
2023-04-22T08:53:57.809Z,13.15
2023-04-22T08:56:30.794Z,7.57
2023-04-22T08:59:05.010Z,25.38
2023-04-22T09:01:38.894Z,5.90
2023-04-22T09:04:15.107Z,11.30
2023-04-22T09:06:47.854Z,7.55
2023-04-22T09:09:21.513Z,8.07
2023-04-22T09:11:54.201Z,13.52
2023-04-22T09:14:27.446Z,9.25
2023-04-22T09:17:00.034Z,17.40
2023-04-22T09:19:32.944Z,5.95
2023-04-22T09:22:05.987Z,6.82
2023-04-22T09:24:41.922Z,5.57
2023-04-22T09:27:14.488Z,10.80
2023-04-22T09:29:51.148Z,6.43
2023-04-22T09:32:25.158Z,8.63
2023-04-22T09:34:58.854Z,6.57
2023-04-22T09:37:42.819Z,8.38
2023-04-22T09:40:21.804Z,6.60
2023-04-22T09:42:55.761Z,8.60
2023-04-22T09:45:31.912Z,5.43
2023-04-22T09:48:11.509Z,15.23
2023-04-22T09:50:45.865Z,11.75
2023-04-22T09:53:19.841Z,9.13
2023-04-22T09:55:54.577Z,6.88
2023-04-22T09:58:28.208Z,6.78
2023-04-22T10:01:01.565Z,11.50
2023-04-22T10:03:34.275Z,10.65
2023-04-22T10:06:07.951Z,12.65
2023-04-22T10:08:40.562Z,9.93
2023-04-22T10:11:15.716Z,9.95
2023-04-22T10:13:50.929Z,13.45
2023-04-22T10:16:24.609Z,10.43
2023-04-22T10:18:57.746Z,14.07
2023-04-22T10:21:31.933Z,7.55
2023-04-22T10:24:04.629Z,7.38
2023-04-22T10:26:44.366Z,12.88
2023-04-22T10:29:18.114Z,9.70
2023-04-22T10:31:54.041Z,9.82
2023-04-22T10:34:26.620Z,6.90
2023-04-22T10:37:06.751Z,7.30
2023-04-22T10:39:40.372Z,8.15
2023-04-22T10:42:15.898Z,7.93
2023-04-22T10:45:00.429Z,12.23
2023-04-22T10:47:34.655Z,11.43
2023-04-22T10:50:13.360Z,5.95
2023-04-22T10:52:47.881Z,6.30
2023-04-22T10:55:21.996Z,13.65
2023-04-22T10:57:55.323Z,5.32
2023-04-22T11:00:41.703Z,6.63
2023-04-22T11:03:25.392Z,7.80
2023-04-22T11:06:15.072Z,9.88
2023-04-22T11:08:51.236Z,6.85
2023-04-22T11:11:23.975Z,6.40
2023-04-22T11:13:58.185Z,9.55
2023-04-22T11:16:30.983Z,7.45
2023-04-22T11:19:04.092Z,7.32
2023-04-22T11:21:36.817Z,8.75
2023-04-22T11:24:10.137Z,7.25
2023-04-22T11:26:43.020Z,5.35
2023-04-22T11:29:15.987Z,14.35
2023-04-22T11:31:49.416Z,6.32
2023-04-22T11:34:22.738Z,6.93
2023-04-22T11:36:55.355Z,8.40
2023-04-22T11:39:35.402Z,5.57
2023-04-22T11:42:08.209Z,9.45
2023-04-22T11:44:41.262Z,7.05
2023-04-22T11:47:13.857Z,6.93
2023-04-22T11:50:00.017Z,20.15
2023-04-22T11:52:47.978Z,6.82
2023-04-22T11:55:22.620Z,9.65
2023-04-22T11:57:56.725Z,6.65
2023-04-22T12:00:34.434Z,4.90
2023-04-22T12:03:17.496Z,8.10
2023-04-22T12:05:52.834Z,7.72
2023-04-22T12:08:26.825Z,5.18
2023-04-22T12:11:01.016Z,10.55
2023-04-22T12:13:35.186Z,9.40
2023-04-22T12:16:14.693Z,9.30
2023-04-22T12:18:51.251Z,6.47
2023-04-22T12:21:25.261Z,6.20
2023-04-22T12:24:05.370Z,6.25
2023-04-22T12:26:38.397Z,5.50
2023-04-22T12:29:11.099Z,5.35
2023-04-22T12:31:44.098Z,4.97
2023-04-22T12:34:17.222Z,7.22
2023-04-22T12:36:51.103Z,8.13
2023-04-22T12:39:23.773Z,6.72
2023-04-22T12:41:58.161Z,5.13
2023-04-22T12:44:30.746Z,7.28
2023-04-22T12:47:03.908Z,6.80
2023-04-22T12:49:37.110Z,7.28
2023-04-22T12:52:10.520Z,8.27
2023-04-22T12:54:43.180Z,6.13
2023-04-22T12:57:16.204Z,4.45
2023-04-22T12:59:48.872Z,14.75
2023-04-22T13:02:22.361Z,6.90
2023-04-22T13:04:55.121Z,14.07
2023-04-22T13:07:28.122Z,8.52
2023-04-22T13:10:00.960Z,8.32
2023-04-22T13:12:33.899Z,4.15
2023-04-22T13:15:07.124Z,6.13
2023-04-22T13:17:40.485Z,17.60
2023-04-22T13:20:14.972Z,8.45
2023-04-22T13:22:48.818Z,6.97
2023-04-22T13:25:21.375Z,9.63
2023-04-22T13:27:54.473Z,6.97
2023-04-22T13:30:27.186Z,8.18
2023-04-22T13:33:00.295Z,9.20
2023-04-22T13:35:32.958Z,8.90
2023-04-22T13:38:06.744Z,15.05
2023-04-22T13:40:39.905Z,10.80
2023-04-22T13:43:12.985Z,16.40
2023-04-22T13:45:45.916Z,14.48
2023-04-22T13:48:18.906Z,11.88
2023-04-22T13:50:51.615Z,11.00
2023-04-22T13:53:25.116Z,6.47
2023-04-22T13:55:57.815Z,10.88
2023-04-22T13:58:30.861Z,12.15
2023-04-22T14:01:04.596Z,9.73
2023-04-22T14:03:37.734Z,8.93
2023-04-22T14:06:10.501Z,5.80
2023-04-22T14:08:43.640Z,16.50
2023-04-22T14:11:16.329Z,7.75
2023-04-22T14:13:49.567Z,8.38
2023-04-22T14:16:30.284Z,11.88
2023-04-22T14:19:11.961Z,13.70
2023-04-22T14:21:44.645Z,9.63
2023-04-22T14:24:17.706Z,7.93
2023-04-22T14:26:52.622Z,26.38
2023-04-22T14:29:26.588Z,7.50
2023-04-22T14:32:00.076Z,9.93
2023-04-22T14:34:33.525Z,8.13
2023-04-22T14:37:06.144Z,6.88
2023-04-22T14:39:40.285Z,12.35
2023-04-22T14:42:14.306Z,8.05
2023-04-22T14:44:47.918Z,8.32
2023-04-22T14:47:20.931Z,8.63
2023-04-22T14:49:54.648Z,11.77
2023-04-22T14:52:27.675Z,10.65
2023-04-22T14:55:08.713Z,9.15
2023-04-22T14:57:44.742Z,17.08
2023-04-22T15:00:17.979Z,7.78
2023-04-22T15:02:50.793Z,10.38
2023-04-22T15:05:24.092Z,8.55
2023-04-22T15:07:58.209Z,12.30
2023-04-22T15:10:31.330Z,9.15
2023-04-22T15:13:03.953Z,7.50
2023-04-22T15:15:37.000Z,6.50
2023-04-22T15:18:09.649Z,12.85
2023-04-22T15:20:42.890Z,10.40
2023-04-22T15:23:15.615Z,9.63
2023-04-22T15:25:48.622Z,10.50
2023-04-22T15:28:21.242Z,8.25
2023-04-22T15:30:54.431Z,10.00
2023-04-22T15:33:27.058Z,8.00
2023-04-22T15:36:00.097Z,9.70
2023-04-22T15:38:32.745Z,9.90
2023-04-22T15:41:06.010Z,9.10
2023-04-22T15:43:38.683Z,8.75
2023-04-22T15:46:11.706Z,7.88
2023-04-22T15:48:47.560Z,10.35
2023-04-22T15:51:20.685Z,10.55
2023-04-22T15:53:53.885Z,9.55
2023-04-22T15:56:26.983Z,10.40
2023-04-22T15:59:01.378Z,11.60
2023-04-22T16:01:34.571Z,20.20
2023-04-22T16:04:07.550Z,10.27
2023-04-22T16:06:41.124Z,7.97
2023-04-22T16:09:13.831Z,10.98
2023-04-22T16:11:46.845Z,14.45
2023-04-22T16:14:19.471Z,9.77
2023-04-22T16:16:52.881Z,8.32
2023-04-22T16:19:25.654Z,7.97
2023-04-22T16:21:58.694Z,10.05
2023-04-22T16:24:31.346Z,8.63
2023-04-22T16:27:04.544Z,12.88
2023-04-22T16:29:39.901Z,11.63
2023-04-22T16:32:13.347Z,10.85
2023-04-22T16:34:46.271Z,8.18
2023-04-22T16:37:19.312Z,10.13
2023-04-22T16:39:52.326Z,11.60
2023-04-22T16:42:25.255Z,10.35
2023-04-22T16:44:57.933Z,8.98
2023-04-22T16:47:30.927Z,8.65
2023-04-22T16:50:04.554Z,11.93
2023-04-22T16:52:37.695Z,12.50
2023-04-22T16:55:10.496Z,16.23
2023-04-22T16:57:47.892Z,10.95
2023-04-22T17:00:21.315Z,10.88
2023-04-22T17:02:54.421Z,9.82
2023-04-22T17:05:27.132Z,10.80
2023-04-22T17:08:00.225Z,43.22
2023-04-22T17:10:33.343Z,20.50
2023-04-22T17:13:06.545Z,12.18
2023-04-22T17:15:39.153Z,12.43
2023-04-22T17:18:12.255Z,17.25
2023-04-22T17:20:45.191Z,9.85
2023-04-22T17:23:18.255Z,16.55
2023-04-22T17:25:50.955Z,18.60
2023-04-22T17:28:23.969Z,14.95
2023-04-22T17:30:56.763Z,15.55
2023-04-22T17:33:30.534Z,11.43
2023-04-22T17:36:06.201Z,9.45
2023-04-22T17:38:41.373Z,10.20
2023-04-22T17:41:14.311Z,12.57
2023-04-22T17:43:47.611Z,9.48
2023-04-22T17:46:20.240Z,17.27
2023-04-22T17:48:53.140Z,14.65
2023-04-22T17:51:25.807Z,17.63
2023-04-22T17:53:58.794Z,70.53
2023-04-22T17:56:31.447Z,78.07
2023-04-22T17:59:04.488Z,37.28
2023-04-22T18:01:39.182Z,24.05
2023-04-22T18:04:12.300Z,24.75
2023-04-22T18:06:45.124Z,85.50
2023-04-22T18:09:18.157Z,70.60
2023-04-22T18:11:50.867Z,56.25
2023-04-22T18:14:23.842Z,23.65
2023-04-22T18:16:56.922Z,16.08
2023-04-22T18:19:30.175Z,16.08
2023-04-22T18:22:02.991Z,31.67
2023-04-22T18:24:36.942Z,29.05
2023-04-22T18:27:10.451Z,45.90
2023-04-22T18:29:43.496Z,56.90
2023-04-22T18:32:17.186Z,46.13
2023-04-22T18:34:50.304Z,40.03
2023-04-22T18:37:22.960Z,17.52
2023-04-22T18:39:55.882Z,18.23
2023-04-22T18:42:29.427Z,16.17
2023-04-22T18:45:04.750Z,14.45
2023-04-22T18:47:37.817Z,10.70
2023-04-22T18:50:10.923Z,13.88
2023-04-22T18:52:43.584Z,16.70
2023-04-22T18:55:16.541Z,19.60
2023-04-22T18:57:49.277Z,20.27
2023-04-22T19:00:22.648Z,18.98
2023-04-22T19:02:55.421Z,21.15
2023-04-22T19:05:28.450Z,15.55
2023-04-22T19:08:01.239Z,39.92
2023-04-22T19:10:34.326Z,22.45
2023-04-22T19:13:13.415Z,24.48
2023-04-22T19:15:51.956Z,34.65
2023-04-22T19:18:24.674Z,21.52
2023-04-22T19:20:58.044Z,25.75
2023-04-22T19:23:30.688Z,28.58
2023-04-22T19:26:04.832Z,26.95
2023-04-22T19:28:37.518Z,33.22
2023-04-22T19:31:10.828Z,26.70
2023-04-22T19:33:43.733Z,25.95
2023-04-22T19:36:17.106Z,28.15
2023-04-22T19:38:49.767Z,31.40
2023-04-22T19:41:22.858Z,45.67
2023-04-22T19:43:57.318Z,34.58
2023-04-22T19:46:30.479Z,25.55
2023-04-22T19:49:03.373Z,24.40
2023-04-22T19:51:37.204Z,26.73
2023-04-22T19:54:12.290Z,22.70
2023-04-22T19:56:45.722Z,20.42
2023-04-22T19:59:18.972Z,32.00
2023-04-22T20:01:52.191Z,25.45
2023-04-22T20:04:25.033Z,26.35
2023-04-22T20:06:59.840Z,32.15
2023-04-22T20:09:35.139Z,27.30
2023-04-22T20:12:08.549Z,36.15
2023-04-22T20:14:41.918Z,22.60
2023-04-22T20:17:15.059Z,23.98
2023-04-22T20:19:47.671Z,28.23
2023-04-22T20:22:25.037Z,36.50
2023-04-22T20:25:04.143Z,43.58
2023-04-22T20:27:37.502Z,42.50
2023-04-22T20:30:11.019Z,31.35
2023-04-22T20:32:44.200Z,34.45
2023-04-22T20:35:17.580Z,28.77
2023-04-22T20:37:51.307Z,20.05
2023-04-22T20:40:24.787Z,25.40
2023-04-22T20:42:59.095Z,31.70
2023-04-22T20:45:32.530Z,16.27
2023-04-22T20:48:05.611Z,29.00
2023-04-22T20:50:38.700Z,29.08
2023-04-22T20:53:12.063Z,16.83
2023-04-22T20:55:44.592Z,17.55
2023-04-22T20:58:17.707Z,16.45
2023-04-22T21:00:50.489Z,20.80
2023-04-22T21:03:24.648Z,13.00
2023-04-22T21:05:58.790Z,15.95
2023-04-22T21:08:34.270Z,13.88
2023-04-22T21:11:07.451Z,15.18
2023-04-22T21:13:40.986Z,19.70
2023-04-22T21:16:14.271Z,18.05
2023-04-22T21:18:47.667Z,17.50
2023-04-22T21:21:21.897Z,20.30
2023-04-22T21:23:57.160Z,21.85
2023-04-22T21:26:30.455Z,18.20
2023-04-22T21:29:03.441Z,22.25
2023-04-22T21:31:36.169Z,16.02
2023-04-22T21:34:10.353Z,21.65
2023-04-22T21:36:42.983Z,19.23
2023-04-22T21:39:15.988Z,19.58
2023-04-22T21:41:48.666Z,22.38
2023-04-22T21:44:21.581Z,23.60
2023-04-22T21:46:54.718Z,18.70
2023-04-22T21:49:27.604Z,18.25
2023-04-22T21:52:00.172Z,21.88
2023-04-22T21:54:32.994Z,31.17
2023-04-22T21:57:05.639Z,33.33
2023-04-22T21:59:38.437Z,23.98
2023-04-22T22:02:10.984Z,30.80
2023-04-22T22:04:44.374Z,24.20
2023-04-22T22:07:18.208Z,20.98
2023-04-22T22:09:51.122Z,20.15
2023-04-22T22:12:23.728Z,20.20
2023-04-22T22:14:56.598Z,17.58
2023-04-22T22:17:29.433Z,19.38
2023-04-22T22:20:02.983Z,22.98
2023-04-22T22:22:35.533Z,21.38
2023-04-22T22:25:09.535Z,22.00
2023-04-22T22:27:45.965Z,16.42
2023-04-22T22:30:21.502Z,24.27
2023-04-22T22:32:54.017Z,13.38
2023-04-22T22:35:27.099Z,25.02
2023-04-22T22:37:59.672Z,20.75
2023-04-22T22:40:32.871Z,22.55
2023-04-22T22:43:05.564Z,24.05
2023-04-22T22:45:38.637Z,17.98
2023-04-22T22:48:11.434Z,22.63
2023-04-22T22:50:44.496Z,22.00
2023-04-22T22:53:17.391Z,21.55
2023-04-22T22:55:50.442Z,25.23
2023-04-22T22:58:23.368Z,28.42
2023-04-22T23:00:56.671Z,28.90
2023-04-22T23:03:29.481Z,46.33
2023-04-22T23:06:02.587Z,22.00
2023-04-22T23:08:35.160Z,18.98
2023-04-22T23:11:08.257Z,24.40
2023-04-22T23:13:41.501Z,16.08
2023-04-22T23:16:14.836Z,27.08
2023-04-22T23:18:48.424Z,15.05
2023-04-22T23:21:23.519Z,21.25
2023-04-22T23:23:57.372Z,16.08
2023-04-22T23:26:31.141Z,27.30
2023-04-22T23:29:07.070Z,17.67
2023-04-22T23:31:40.673Z,22.13
2023-04-22T23:34:13.979Z,21.35
2023-04-22T23:36:47.516Z,21.15
2023-04-22T23:39:20.184Z,21.60
2023-04-22T23:41:53.308Z,20.42
2023-04-22T23:44:25.930Z,23.25
2023-04-22T23:46:59.165Z,20.77
2023-04-22T23:49:31.992Z,18.27
2023-04-22T23:52:08.495Z,26.88
2023-04-22T23:54:41.730Z,19.52
2023-04-22T23:57:15.433Z,25.83
2023-04-22T23:59:48.213Z,23.42
